Historyczne dane pomiarowe

Dodano dane terminowe – wersja testowa.

Dane z okresu 1951-2019

Wersja bazy: 1.34 [2019-03-16, lista zmian], aktualizacja planowana na 2019-04-15

Dane meteo z obszaru Polski uzyskane na podstawie danych udostępnionych przez Instytut Meteorologii i Gospodarki Wodnej – Państwowy Instytut Badawczy.

 

Wybierz Datę:    

       

TemperaturaWilgotnośćZachmurzenieWiatrCiśnienieWidzialnośćZjawiska
 Data    tng td wb rh cc ccl cl cm ch dir g1 g2 mslp ppp      
1999-07-26 00:00:00 13.6--- 12.2 12.891wxwx2wx--1018.1 993.5 0.0---wx
1999-07-26 01:00:00 13.0--- 12.0 12.493wxwx1wx--1017.9 993.2----wx
1999-07-26 02:00:00 12.4--- 11.3 11.893wxwx2wx--1018.0 993.3----wx
1999-07-26 03:00:00 12.0--- 11.3 11.695wxwxwx1wx--1018.0 993.2----wx
1999-07-26 04:00:00 12.2--- 11.9 12.098wxwxwx1wx--1017.6 992.9----wx
1999-07-26 05:00:00 15.4--- 14.4 14.894wxwxwx1wx--1017.7 993.2----wx
1999-07-26 06:00:00 16.4--- 14.1 15.086wxwxwx0wx--1017.6 993.2 0.0---wx
1999-07-26 07:00:00 20.2--- 15.4 17.274wxwx3wx--1016.9 992.8----wx
1999-07-26 08:00:00 22.2--- 16.0 18.268wxwxwx3wx--1016.6 992.7----wx
1999-07-26 09:00:00 23.6--- 16.0 18.762wxwxwx3wx--1016.4 992.6----wx
1999-07-26 10:00:00 24.8--- 15.6 18.957wxwxwxwx3wx--1016.1 992.4----wx
1999-07-26 11:00:00 25.2--- 15.4 18.955wxwxwxwx2wx--1015.7 992.1----wx
1999-07-26 12:00:00 26.4--- 16.1 19.753wxwxwxwx3wx--1015.5 992.0 0.0---wx
1999-07-26 13:00:00 27.1--- 15.5 19.649wxwxwxwx2wx--1015.0 991.5----wx
1999-07-26 14:00:00 27.0--- 15.0 19.348wxwxwxwx3wx--1014.8 991.3----wx
1999-07-26 15:00:00 27.1--- 14.9 19.347wxwxwxwx3wx--1015.0 991.5----wx
1999-07-26 16:00:00 26.2--- 14.7 18.949wxwxwxwx2wx--1014.7 991.2----wx
1999-07-26 17:00:00 26.0--- 14.9 18.950wxwxwxwxwx1wx--1014.8 991.2----wx
1999-07-26 18:00:00 25.8--- 15.0 18.951wxwxwxwx0wx--1015.1 991.5 0.0---wx
1999-07-26 19:00:00 20.8--- 15.4 17.471wxwxwx2wx--1015.8 991.8----wx
1999-07-26 20:00:00 19.2--- 14.5 16.374wxwxwx0wx--1016.2 992.1----wx
1999-07-26 21:00:00 17.2--- 14.1 15.382wxwxwx2wx--1016.3 992.0----wx
1999-07-26 22:00:00 17.0--- 14.2 15.384wxwx4wx--1016.7 992.4----wx
1999-07-26 23:00:00 19.0--- 15.7 16.981wxwx3wx--1016.8 992.6----wx

 

Źródłem pochodzenia danych jest Instytut Meteorologii i Gospodarki Wodnej – Państwowy Instytut Badawczy. Dane Instytutu Meteorologii i Gospodarki Wodnej – Państwowego Instytutu Badawczego zostały przetworzone.

Dane źródłowe można odnaleźć na stronie https://dane.imgw.pl